sensor_id;sensor_type;location;lat;lon;timestamp;temperature;humidity
21551;DHT22;10936;49.836;7.078;2023-03-14T06:01:46;7.60;99.90
21551;DHT22;10936;49.836;7.078;2023-03-14T06:04:11;7.70;99.90
21551;DHT22;10936;49.836;7.078;2023-03-14T06:06:37;7.60;99.90
21551;DHT22;10936;49.836;7.078;2023-03-14T06:09:04;7.60;99.90
21551;DHT22;10936;49.836;7.078;2023-03-14T06:11:29;7.70;99.90
21551;DHT22;10936;49.836;7.078;2023-03-14T06:13:55;7.70;99.90
21551;DHT22;10936;49.836;7.078;2023-03-14T06:16:21;7.80;99.90
21551;DHT22;10936;49.836;7.078;2023-03-14T06:18:46;7.80;99.90
21551;DHT22;10936;49.836;7.078;2023-03-14T06:21:14;7.80;99.90
21551;DHT22;10936;49.836;7.078;2023-03-14T06:23:40;7.80;99.90
21551;DHT22;10936;49.836;7.078;2023-03-14T06:26:06;7.80;99.90
21551;DHT22;10936;49.836;7.078;2023-03-14T06:28:31;7.80;99.90
21551;DHT22;10936;49.836;7.078;2023-03-14T06:30:59;7.80;99.90
21551;DHT22;10936;49.836;7.078;2023-03-14T06:33:24;7.80;99.90
21551;DHT22;10936;49.836;7.078;2023-03-14T06:35:50;7.80;99.90
21551;DHT22;10936;49.836;7.078;2023-03-14T06:38:15;7.80;99.90
21551;DHT22;10936;49.836;7.078;2023-03-14T06:40:41;7.90;99.90
21551;DHT22;10936;49.836;7.078;2023-03-14T06:43:06;7.90;99.90
21551;DHT22;10936;49.836;7.078;2023-03-14T06:45:32;8.00;99.90
21551;DHT22;10936;49.836;7.078;2023-03-14T06:47:57;8.10;99.90
21551;DHT22;10936;49.836;7.078;2023-03-14T06:50:23;8.10;99.90
21551;DHT22;10936;49.836;7.078;2023-03-14T06:52:49;8.10;99.90
21551;DHT22;10936;49.836;7.078;2023-03-14T06:55:15;8.20;99.90
21551;DHT22;10936;49.836;7.078;2023-03-14T06:57:41;8.30;99.90
21551;DHT22;10936;49.836;7.078;2023-03-14T07:00:08;8.30;99.90
21551;DHT22;10936;49.836;7.078;2023-03-14T07:02:34;8.40;99.90
21551;DHT22;10936;49.836;7.078;2023-03-14T07:05:00;8.60;99.90
21551;DHT22;10936;49.836;7.078;2023-03-14T07:07:26;8.80;99.90
21551;DHT22;10936;49.836;7.078;2023-03-14T07:09:52;8.90;99.90
21551;DHT22;10936;49.836;7.078;2023-03-14T07:12:17;8.80;99.90
21551;DHT22;10936;49.836;7.078;2023-03-14T07:14:43;8.80;99.90
21551;DHT22;10936;49.836;7.078;2023-03-14T07:17:08;8.70;99.90
21551;DHT22;10936;49.836;7.078;2023-03-14T07:19:34;8.70;99.90
21551;DHT22;10936;49.836;7.078;2023-03-14T07:22:00;8.70;99.90
21551;DHT22;10936;49.836;7.078;2023-03-14T07:24:25;8.70;99.90
21551;DHT22;10936;49.836;7.078;2023-03-14T07:26:51;8.60;99.90
21551;DHT22;10936;49.836;7.078;2023-03-14T07:29:16;8.70;99.90
21551;DHT22;10936;49.836;7.078;2023-03-14T07:31:42;8.60;99.90
21551;DHT22;10936;49.836;7.078;2023-03-14T07:34:07;8.70;99.90
21551;DHT22;10936;49.836;7.078;2023-03-14T07:36:33;8.70;99.90
21551;DHT22;10936;49.836;7.078;2023-03-14T07:38:58;8.80;99.90
21551;DHT22;10936;49.836;7.078;2023-03-14T07:41:24;8.70;99.90
21551;DHT22;10936;49.836;7.078;2023-03-14T07:43:50;8.70;99.90
21551;DHT22;10936;49.836;7.078;2023-03-14T07:46:15;8.80;99.90
21551;DHT22;10936;49.836;7.078;2023-03-14T07:48:42;9.00;99.90
21551;DHT22;10936;49.836;7.078;2023-03-14T07:51:08;9.10;99.90
21551;DHT22;10936;49.836;7.078;2023-03-14T07:53:33;9.20;99.90
21551;DHT22;10936;49.836;7.078;2023-03-14T07:55:59;9.30;99.90
21551;DHT22;10936;49.836;7.078;2023-03-14T07:58:25;9.50;99.90
21551;DHT22;10936;49.836;7.078;2023-03-14T08:00:51;10.40;99.90
21551;DHT22;10936;49.836;7.078;2023-03-14T08:03:17;10.50;99.90
21551;DHT22;10936;49.836;7.078;2023-03-14T08:05:46;10.40;99.90
21551;DHT22;10936;49.836;7.078;2023-03-14T08:08:12;10.30;99.90
21551;DHT22;10936;49.836;7.078;2023-03-14T08:10:38;10.20;99.90
21551;DHT22;10936;49.836;7.078;2023-03-14T08:13:04;10.00;99.90
21551;DHT22;10936;49.836;7.078;2023-03-14T08:15:30;10.00;99.90
21551;DHT22;10936;49.836;7.078;2023-03-14T08:17:56;9.90;99.90
21551;DHT22;10936;49.836;7.078;2023-03-14T08:20:24;10.00;99.90
21551;DHT22;10936;49.836;7.078;2023-03-14T08:22:50;10.10;99.90
21551;DHT22;10936;49.836;7.078;2023-03-14T08:25:16;10.30;99.90
21551;DHT22;10936;49.836;7.078;2023-03-14T08:27:42;10.20;99.90
21551;DHT22;10936;49.836;7.078;2023-03-14T08:30:13;10.20;99.90
21551;DHT22;10936;49.836;7.078;2023-03-14T08:32:39;10.20;99.90
21551;DHT22;10936;49.836;7.078;2023-03-14T08:35:05;10.20;99.90
21551;DHT22;10936;49.836;7.078;2023-03-14T08:37:35;10.30;99.90
21551;DHT22;10936;49.836;7.078;2023-03-14T08:40:01;10.40;99.90
21551;DHT22;10936;49.836;7.078;2023-03-14T08:42:30;10.30;99.90
21551;DHT22;10936;49.836;7.078;2023-03-14T08:44:55;10.40;99.90
21551;DHT22;10936;49.836;7.078;2023-03-14T08:47:21;10.40;99.90
21551;DHT22;10936;49.836;7.078;2023-03-14T08:49:47;10.60;99.90
21551;DHT22;10936;49.836;7.078;2023-03-14T08:52:12;10.80;99.90
21551;DHT22;10936;49.836;7.078;2023-03-14T08:54:38;10.70;99.90
21551;DHT22;10936;49.836;7.078;2023-03-14T08:57:03;10.50;99.90
21551;DHT22;10936;49.836;7.078;2023-03-14T08:59:29;10.50;99.90
21551;DHT22;10936;49.836;7.078;2023-03-14T09:01:54;10.40;99.90
21551;DHT22;10936;49.836;7.078;2023-03-14T09:04:20;10.40;99.90
21551;DHT22;10936;49.836;7.078;2023-03-14T09:06:46;10.30;99.90
21551;DHT22;10936;49.836;7.078;2023-03-14T09:09:11;10.30;99.90
21551;DHT22;10936;49.836;7.078;2023-03-14T09:11:38;10.30;99.90
21551;DHT22;10936;49.836;7.078;2023-03-14T09:14:04;10.30;99.90
21551;DHT22;10936;49.836;7.078;2023-03-14T09:16:30;10.30;99.90
21551;DHT22;10936;49.836;7.078;2023-03-14T09:18:55;10.40;99.90
21551;DHT22;10936;49.836;7.078;2023-03-14T09:21:27;10.50;99.90
21551;DHT22;10936;49.836;7.078;2023-03-14T09:23:53;10.40;99.90
21551;DHT22;10936;49.836;7.078;2023-03-14T09:26:19;10.40;99.90
21551;DHT22;10936;49.836;7.078;2023-03-14T09:28:44;10.40;99.90
21551;DHT22;10936;49.836;7.078;2023-03-14T09:31:11;10.40;99.90
21551;DHT22;10936;49.836;7.078;2023-03-14T09:33:37;10.30;99.90
21551;DHT22;10936;49.836;7.078;2023-03-14T09:36:04;10.20;99.90
21551;DHT22;10936;49.836;7.078;2023-03-14T09:38:30;10.20;99.90
21551;DHT22;10936;49.836;7.078;2023-03-14T09:40:57;10.10;99.90
21551;DHT22;10936;49.836;7.078;2023-03-14T09:43:24;10.10;99.90
21551;DHT22;10936;49.836;7.078;2023-03-14T09:45:51;10.10;99.90
21551;DHT22;10936;49.836;7.078;2023-03-14T09:48:22;10.10;99.90
21551;DHT22;10936;49.836;7.078;2023-03-14T09:50:51;10.00;99.90
21551;DHT22;10936;49.836;7.078;2023-03-14T09:53:21;9.70;99.90
21551;DHT22;10936;49.836;7.078;2023-03-14T09:55:50;9.70;99.90
21551;DHT22;10936;49.836;7.078;2023-03-14T09:58:20;9.70;99.90
21551;DHT22;10936;49.836;7.078;2023-03-14T10:00:46;9.80;99.90
21551;DHT22;10936;49.836;7.078;2023-03-14T10:05:38;9.80;99.90
21551;DHT22;10936;49.836;7.078;2023-03-14T10:08:04;9.80;99.90
21551;DHT22;10936;49.836;7.078;2023-03-14T10:10:31;9.80;99.90
21551;DHT22;10936;49.836;7.078;2023-03-14T10:12:59;9.70;99.90
21551;DHT22;10936;49.836;7.078;2023-03-14T10:15:34;9.70;99.90
21551;DHT22;10936;49.836;7.078;2023-03-14T10:18:02;9.60;99.90
21551;DHT22;10936;49.836;7.078;2023-03-14T10:20:36;9.60;99.90
21551;DHT22;10936;49.836;7.078;2023-03-14T10:25:31;9.70;99.90
21551;DHT22;10936;49.836;7.078;2023-03-14T10:27:57;9.60;99.90
21551;DHT22;10936;49.836;7.078;2023-03-14T10:31:06;9.80;99.90
21551;DHT22;10936;49.836;7.078;2023-03-14T10:33:33;9.70;99.90
21551;DHT22;10936;49.836;7.078;2023-03-14T10:36:20;9.50;99.90
21551;DHT22;10936;49.836;7.078;2023-03-14T10:38:47;9.50;99.90
21551;DHT22;10936;49.836;7.078;2023-03-14T10:41:24;9.40;99.90
21551;DHT22;10936;49.836;7.078;2023-03-14T10:43:52;9.00;99.90
21551;DHT22;10936;49.836;7.078;2023-03-14T10:46:19;9.30;99.90
21551;DHT22;10936;49.836;7.078;2023-03-14T10:48:45;9.50;99.90
21551;DHT22;10936;49.836;7.078;2023-03-14T10:56:20;9.10;99.90
21551;DHT22;10936;49.836;7.078;2023-03-14T10:58:49;9.30;99.90
21551;DHT22;10936;49.836;7.078;2023-03-14T11:07:09;9.00;99.90
21551;DHT22;10936;49.836;7.078;2023-03-14T11:09:41;8.90;99.90
21551;DHT22;10936;49.836;7.078;2023-03-14T11:14:54;8.40;99.90
21551;DHT22;10936;49.836;7.078;2023-03-14T11:20:29;8.30;99.90
21551;DHT22;10936;49.836;7.078;2023-03-14T11:23:04;8.10;99.90
21551;DHT22;10936;49.836;7.078;2023-03-14T11:30:55;8.60;99.90
21551;DHT22;10936;49.836;7.078;2023-03-14T11:33:37;8.80;99.90
21551;DHT22;10936;49.836;7.078;2023-03-14T11:36:07;9.30;99.90
21551;DHT22;10936;49.836;7.078;2023-03-14T11:38:48;9.70;99.90
21551;DHT22;10936;49.836;7.078;2023-03-14T11:41:30;10.70;99.90
21551;DHT22;10936;49.836;7.078;2023-03-14T11:44:00;12.30;99.90
21551;DHT22;10936;49.836;7.078;2023-03-14T11:47:07;14.10;99.90
21551;DHT22;10936;49.836;7.078;2023-03-14T11:52:03;13.60;99.90
21551;DHT22;10936;49.836;7.078;2023-03-14T11:54:41;13.10;99.90
21551;DHT22;10936;49.836;7.078;2023-03-14T11:57:16;13.10;99.90
21551;DHT22;10936;49.836;7.078;2023-03-14T12:05:37;10.60;99.90
21551;DHT22;10936;49.836;7.078;2023-03-14T12:13:16;8.40;99.90
21551;DHT22;10936;49.836;7.078;2023-03-14T12:15:59;7.90;99.90
21551;DHT22;10936;49.836;7.078;2023-03-14T12:18:39;8.20;99.90
21551;DHT22;10936;49.836;7.078;2023-03-14T12:21:08;10.50;99.90
21551;DHT22;10936;49.836;7.078;2023-03-14T12:23:44;11.70;99.90
21551;DHT22;10936;49.836;7.078;2023-03-14T12:26:20;11.50;99.90
21551;DHT22;10936;49.836;7.078;2023-03-14T12:31:46;10.10;99.90
21551;DHT22;10936;49.836;7.078;2023-03-14T12:49:48;8.90;99.90
21551;DHT22;10936;49.836;7.078;2023-03-14T12:52:21;8.80;99.90
21551;DHT22;10936;49.836;7.078;2023-03-14T12:55:01;8.80;99.90
21551;DHT22;10936;49.836;7.078;2023-03-14T13:02:28;9.40;99.90
21551;DHT22;10936;49.836;7.078;2023-03-14T13:05:04;9.20;99.90
21551;DHT22;10936;49.836;7.078;2023-03-14T13:07:31;9.10;99.90
21551;DHT22;10936;49.836;7.078;2023-03-14T13:15:30;8.70;99.90
21551;DHT22;10936;49.836;7.078;2023-03-14T13:18:02;8.90;99.90
21551;DHT22;10936;49.836;7.078;2023-03-14T13:20:37;9.40;99.90
21551;DHT22;10936;49.836;7.078;2023-03-14T13:23:04;9.70;99.90
21551;DHT22;10936;49.836;7.078;2023-03-14T13:25:33;10.10;99.90
21551;DHT22;10936;49.836;7.078;2023-03-14T13:28:00;10.40;99.90
21551;DHT22;10936;49.836;7.078;2023-03-14T13:30:29;10.90;99.90
21551;DHT22;10936;49.836;7.078;2023-03-14T13:33:04;10.80;99.90
21551;DHT22;10936;49.836;7.078;2023-03-14T13:35:41;10.30;99.90
21551;DHT22;10936;49.836;7.078;2023-03-14T13:38:20;10.20;99.90
21551;DHT22;10936;49.836;7.078;2023-03-14T13:40:47;9.80;99.90
21551;DHT22;10936;49.836;7.078;2023-03-14T13:45:48;9.20;99.90
21551;DHT22;10936;49.836;7.078;2023-03-14T13:48:14;9.20;99.90
21551;DHT22;10936;49.836;7.078;2023-03-14T13:51:16;9.00;99.90
21551;DHT22;10936;49.836;7.078;2023-03-14T13:53:50;9.00;99.90
21551;DHT22;10936;49.836;7.078;2023-03-14T13:56:18;9.20;99.90
21551;DHT22;10936;49.836;7.078;2023-03-14T13:58:44;9.30;99.90
21551;DHT22;10936;49.836;7.078;2023-03-14T14:01:33;8.70;99.90
21551;DHT22;10936;49.836;7.078;2023-03-14T14:04:13;8.10;99.90
21551;DHT22;10936;49.836;7.078;2023-03-14T14:06:46;7.40;99.90
21551;DHT22;10936;49.836;7.078;2023-03-14T14:09:18;7.00;99.90
21551;DHT22;10936;49.836;7.078;2023-03-14T14:11:50;6.80;99.90
21551;DHT22;10936;49.836;7.078;2023-03-14T14:14:25;6.80;99.90
21551;DHT22;10936;49.836;7.078;2023-03-14T14:16:52;6.90;99.90
21551;DHT22;10936;49.836;7.078;2023-03-14T14:19:19;6.90;99.90
21551;DHT22;10936;49.836;7.078;2023-03-14T14:21:47;7.10;99.90
21551;DHT22;10936;49.836;7.078;2023-03-14T14:24:14;7.20;99.90
21551;DHT22;10936;49.836;7.078;2023-03-14T14:26:47;7.20;99.90
21551;DHT22;10936;49.836;7.078;2023-03-14T14:29:28;7.50;99.90
21551;DHT22;10936;49.836;7.078;2023-03-14T14:34:47;7.60;99.90
21551;DHT22;10936;49.836;7.078;2023-03-14T14:37:29;7.50;99.90
21551;DHT22;10936;49.836;7.078;2023-03-14T14:39:58;7.80;99.90
21551;DHT22;10936;49.836;7.078;2023-03-14T14:42:29;8.00;99.90
21551;DHT22;10936;49.836;7.078;2023-03-14T14:44:56;8.30;99.90
21551;DHT22;10936;49.836;7.078;2023-03-14T14:47:25;8.30;99.90
21551;DHT22;10936;49.836;7.078;2023-03-14T14:49:53;8.50;99.90
21551;DHT22;10936;49.836;7.078;2023-03-14T14:52:41;8.60;99.90
21551;DHT22;10936;49.836;7.078;2023-03-14T14:55:18;9.00;99.90
21551;DHT22;10936;49.836;7.078;2023-03-14T14:57:54;9.10;99.90
21551;DHT22;10936;49.836;7.078;2023-03-14T15:00:23;9.10;99.90
21551;DHT22;10936;49.836;7.078;2023-03-14T15:02:51;9.50;99.90
21551;DHT22;10936;49.836;7.078;2023-03-14T15:05:18;9.30;99.90
21551;DHT22;10936;49.836;7.078;2023-03-14T15:07:45;8.90;99.90
21551;DHT22;10936;49.836;7.078;2023-03-14T15:10:19;9.00;99.90
21551;DHT22;10936;49.836;7.078;2023-03-14T15:12:45;8.90;99.90
21551;DHT22;10936;49.836;7.078;2023-03-14T15:15:13;9.10;99.90
21551;DHT22;10936;49.836;7.078;2023-03-14T15:17:39;9.20;99.90
21551;DHT22;10936;49.836;7.078;2023-03-14T15:20:10;9.00;99.90
21551;DHT22;10936;49.836;7.078;2023-03-14T15:22:38;8.90;99.90
21551;DHT22;10936;49.836;7.078;2023-03-14T15:25:04;8.60;99.90
21551;DHT22;10936;49.836;7.078;2023-03-14T15:27:31;8.60;99.90
21551;DHT22;10936;49.836;7.078;2023-03-14T15:29:57;8.50;99.90
21551;DHT22;10936;49.836;7.078;2023-03-14T15:32:24;8.60;99.90
21551;DHT22;10936;49.836;7.078;2023-03-14T15:34:53;8.70;99.90
21551;DHT22;10936;49.836;7.078;2023-03-14T15:37:19;8.70;99.90
21551;DHT22;10936;49.836;7.078;2023-03-14T15:39:45;8.50;99.90
21551;DHT22;10936;49.836;7.078;2023-03-14T15:42:11;8.20;99.90
21551;DHT22;10936;49.836;7.078;2023-03-14T15:44:37;8.10;99.90
21551;DHT22;10936;49.836;7.078;2023-03-14T15:47:04;8.20;99.90
21551;DHT22;10936;49.836;7.078;2023-03-14T15:49:31;8.30;99.90
21551;DHT22;10936;49.836;7.078;2023-03-14T15:51:56;8.40;99.90
21551;DHT22;10936;49.836;7.078;2023-03-14T15:54:24;8.40;99.90
21551;DHT22;10936;49.836;7.078;2023-03-14T15:56:56;8.40;99.90
21551;DHT22;10936;49.836;7.078;2023-03-14T15:59:23;8.30;99.90
21551;DHT22;10936;49.836;7.078;2023-03-14T16:01:49;8.20;99.90
21551;DHT22;10936;49.836;7.078;2023-03-14T16:04:14;8.10;99.90
21551;DHT22;10936;49.836;7.078;2023-03-14T16:06:40;7.90;99.90
21551;DHT22;10936;49.836;7.078;2023-03-14T16:09:07;7.80;99.90
21551;DHT22;10936;49.836;7.078;2023-03-14T16:11:33;7.60;99.90
21551;DHT22;10936;49.836;7.078;2023-03-14T16:13:59;7.50;99.90
21551;DHT22;10936;49.836;7.078;2023-03-14T16:16:24;7.20;99.90
21551;DHT22;10936;49.836;7.078;2023-03-14T16:18:50;7.10;99.90
21551;DHT22;10936;49.836;7.078;2023-03-14T16:21:18;6.90;99.90
21551;DHT22;10936;49.836;7.078;2023-03-14T16:23:44;6.90;99.90
21551;DHT22;10936;49.836;7.078;2023-03-14T16:26:12;6.80;99.90
21551;DHT22;10936;49.836;7.078;2023-03-14T16:28:40;6.70;99.90
21551;DHT22;10936;49.836;7.078;2023-03-14T16:31:10;6.50;99.90
21551;DHT22;10936;49.836;7.078;2023-03-14T16:33:37;6.40;99.90
21551;DHT22;10936;49.836;7.078;2023-03-14T16:36:05;6.20;99.90
21551;DHT22;10936;49.836;7.078;2023-03-14T16:38:36;6.00;99.90
21551;DHT22;10936;49.836;7.078;2023-03-14T16:41:11;5.80;99.90
21551;DHT22;10936;49.836;7.078;2023-03-14T16:43:38;5.70;99.90
21551;DHT22;10936;49.836;7.078;2023-03-14T16:46:06;5.60;99.90
21551;DHT22;10936;49.836;7.078;2023-03-14T16:48:33;5.60;99.90
21551;DHT22;10936;49.836;7.078;2023-03-14T16:51:00;5.60;99.90
21551;DHT22;10936;49.836;7.078;2023-03-14T16:53:25;5.30;99.90
21551;DHT22;10936;49.836;7.078;2023-03-14T16:55:54;5.20;99.90
21551;DHT22;10936;49.836;7.078;2023-03-14T16:58:20;5.10;99.90
21551;DHT22;10936;49.836;7.078;2023-03-14T17:00:48;5.00;99.90
21551;DHT22;10936;49.836;7.078;2023-03-14T17:03:14;4.60;99.90
21551;DHT22;10936;49.836;7.078;2023-03-14T17:05:48;4.60;99.90
21551;DHT22;10936;49.836;7.078;2023-03-14T17:08:15;4.70;99.90
21551;DHT22;10936;49.836;7.078;2023-03-14T17:10:44;4.60;99.90
21551;DHT22;10936;49.836;7.078;2023-03-14T17:13:10;4.70;99.90
21551;DHT22;10936;49.836;7.078;2023-03-14T17:15:38;4.60;99.90
21551;DHT22;10936;49.836;7.078;2023-03-14T17:18:04;4.50;99.90
21551;DHT22;10936;49.836;7.078;2023-03-14T17:20:30;4.10;99.90
21551;DHT22;10936;49.836;7.078;2023-03-14T17:22:56;3.90;99.90
21551;DHT22;10936;49.836;7.078;2023-03-14T17:25:22;3.90;99.90
21551;DHT22;10936;49.836;7.078;2023-03-14T17:27:50;3.90;99.90
21551;DHT22;10936;49.836;7.078;2023-03-14T17:30:15;3.80;99.90
21551;DHT22;10936;49.836;7.078;2023-03-14T17:32:41;3.80;99.90
21551;DHT22;10936;49.836;7.078;2023-03-14T17:35:07;3.80;99.90
21551;DHT22;10936;49.836;7.078;2023-03-14T17:37:33;3.90;99.90
21551;DHT22;10936;49.836;7.078;2023-03-14T17:40:00;3.90;99.90
21551;DHT22;10936;49.836;7.078;2023-03-14T17:42:28;3.80;99.90
21551;DHT22;10936;49.836;7.078;2023-03-14T17:44:55;3.80;99.90
21551;DHT22;10936;49.836;7.078;2023-03-14T17:47:21;3.80;99.90
21551;DHT22;10936;49.836;7.078;2023-03-14T17:49:47;3.60;99.90
21551;DHT22;10936;49.836;7.078;2023-03-14T17:52:13;3.40;99.90
21551;DHT22;10936;49.836;7.078;2023-03-14T17:54:39;3.30;99.90
21551;DHT22;10936;49.836;7.078;2023-03-14T17:57:06;3.20;99.90
21551;DHT22;10936;49.836;7.078;2023-03-14T17:59:33;3.00;99.90
21551;DHT22;10936;49.836;7.078;2023-03-14T18:02:09;2.90;99.90
21551;DHT22;10936;49.836;7.078;2023-03-14T18:04:45;2.80;99.90
21551;DHT22;10936;49.836;7.078;2023-03-14T18:07:44;2.60;99.90
21551;DHT22;10936;49.836;7.078;2023-03-14T18:10:11;2.50;99.90
21551;DHT22;10936;49.836;7.078;2023-03-14T18:12:42;2.40;99.90
21551;DHT22;10936;49.836;7.078;2023-03-14T18:15:10;2.30;99.90
21551;DHT22;10936;49.836;7.078;2023-03-14T18:17:45;2.30;99.90
21551;DHT22;10936;49.836;7.078;2023-03-14T18:20:53;2.30;99.90
21551;DHT22;10936;49.836;7.078;2023-03-14T18:23:22;2.30;99.90
21551;DHT22;10936;49.836;7.078;2023-03-14T18:29:06;2.30;99.90
21551;DHT22;10936;49.836;7.078;2023-03-14T18:31:58;2.30;99.90
21551;DHT22;10936;49.836;7.078;2023-03-14T18:34:29;2.30;99.90
21551;DHT22;10936;49.836;7.078;2023-03-14T18:37:17;2.40;99.90
21551;DHT22;10936;49.836;7.078;2023-03-14T18:39:56;2.40;99.90
21551;DHT22;10936;49.836;7.078;2023-03-14T18:42:22;2.30;99.90
21551;DHT22;10936;49.836;7.078;2023-03-14T18:44:47;2.20;99.90
21551;DHT22;10936;49.836;7.078;2023-03-14T18:47:13;2.20;99.90
21551;DHT22;10936;49.836;7.078;2023-03-14T18:49:39;2.20;99.90
21551;DHT22;10936;49.836;7.078;2023-03-14T18:52:05;2.30;99.90
21551;DHT22;10936;49.836;7.078;2023-03-14T18:54:31;2.30;99.90
21551;DHT22;10936;49.836;7.078;2023-03-14T18:56:57;2.40;99.90
21551;DHT22;10936;49.836;7.078;2023-03-14T18:59:25;2.40;99.90
21551;DHT22;10936;49.836;7.078;2023-03-14T19:01:50;2.40;99.90
21551;DHT22;10936;49.836;7.078;2023-03-14T19:04:16;2.40;99.90
21551;DHT22;10936;49.836;7.078;2023-03-14T19:06:42;2.30;99.90
21551;DHT22;10936;49.836;7.078;2023-03-14T19:09:12;2.20;99.90
21551;DHT22;10936;49.836;7.078;2023-03-14T19:11:39;2.10;99.90
21551;DHT22;10936;49.836;7.078;2023-03-14T19:14:04;2.10;99.90
21551;DHT22;10936;49.836;7.078;2023-03-14T19:16:30;2.00;99.90
21551;DHT22;10936;49.836;7.078;2023-03-14T19:18:56;2.00;99.90
21551;DHT22;10936;49.836;7.078;2023-03-14T19:21:30;2.00;99.90
21551;DHT22;10936;49.836;7.078;2023-03-14T19:23:56;2.10;99.90
21551;DHT22;10936;49.836;7.078;2023-03-14T19:26:22;2.10;99.90
21551;DHT22;10936;49.836;7.078;2023-03-14T19:28:48;2.00;99.90
21551;DHT22;10936;49.836;7.078;2023-03-14T19:31:17;1.90;99.90
21551;DHT22;10936;49.836;7.078;2023-03-14T19:33:42;1.90;99.90
21551;DHT22;10936;49.836;7.078;2023-03-14T19:36:25;2.00;99.90
21551;DHT22;10936;49.836;7.078;2023-03-14T19:38:53;1.80;99.90
21551;DHT22;10936;49.836;7.078;2023-03-14T19:41:20;1.90;99.90
21551;DHT22;10936;49.836;7.078;2023-03-14T19:43:46;1.90;99.90
21551;DHT22;10936;49.836;7.078;2023-03-14T19:46:12;2.10;99.90
21551;DHT22;10936;49.836;7.078;2023-03-14T19:48:38;2.10;99.90
21551;DHT22;10936;49.836;7.078;2023-03-14T19:51:04;2.00;99.90
21551;DHT22;10936;49.836;7.078;2023-03-14T19:53:30;2.00;99.90
21551;DHT22;10936;49.836;7.078;2023-03-14T19:55:56;1.90;99.90
21551;DHT22;10936;49.836;7.078;2023-03-14T19:58:22;1.90;99.90
21551;DHT22;10936;49.836;7.078;2023-03-14T20:00:49;1.90;99.90
21551;DHT22;10936;49.836;7.078;2023-03-14T20:03:15;1.90;99.90
21551;DHT22;10936;49.836;7.078;2023-03-14T20:05:42;1.80;99.90
21551;DHT22;10936;49.836;7.078;2023-03-14T20:08:09;1.80;99.90
21551;DHT22;10936;49.836;7.078;2023-03-14T20:10:35;1.70;99.90
21551;DHT22;10936;49.836;7.078;2023-03-14T20:13:01;1.70;99.90
21551;DHT22;10936;49.836;7.078;2023-03-14T20:15:27;1.60;99.90
21551;DHT22;10936;49.836;7.078;2023-03-14T20:17:52;1.60;99.90
21551;DHT22;10936;49.836;7.078;2023-03-14T20:20:19;1.70;99.90
21551;DHT22;10936;49.836;7.078;2023-03-14T20:22:46;1.60;99.90
21551;DHT22;10936;49.836;7.078;2023-03-14T20:25:16;1.60;99.90
21551;DHT22;10936;49.836;7.078;2023-03-14T20:27:45;1.60;99.90
21551;DHT22;10936;49.836;7.078;2023-03-14T20:30:13;1.60;99.90
21551;DHT22;10936;49.836;7.078;2023-03-14T20:32:40;1.50;99.90
21551;DHT22;10936;49.836;7.078;2023-03-14T20:35:07;1.50;99.90
21551;DHT22;10936;49.836;7.078;2023-03-14T20:37:33;1.50;99.90
21551;DHT22;10936;49.836;7.078;2023-03-14T20:39:59;1.50;99.90
21551;DHT22;10936;49.836;7.078;2023-03-14T20:42:25;1.50;99.90
21551;DHT22;10936;49.836;7.078;2023-03-14T20:44:52;1.40;99.90
21551;DHT22;10936;49.836;7.078;2023-03-14T20:47:19;1.30;99.90
21551;DHT22;10936;49.836;7.078;2023-03-14T20:49:44;1.40;99.90
21551;DHT22;10936;49.836;7.078;2023-03-14T20:52:10;1.40;99.90
21551;DHT22;10936;49.836;7.078;2023-03-14T20:54:37;1.40;99.90
21551;DHT22;10936;49.836;7.078;2023-03-14T20:57:03;1.50;99.90
21551;DHT22;10936;49.836;7.078;2023-03-14T20:59:29;1.50;99.90
21551;DHT22;10936;49.836;7.078;2023-03-14T21:01:54;1.50;99.90
21551;DHT22;10936;49.836;7.078;2023-03-14T21:04:22;1.50;99.90
21551;DHT22;10936;49.836;7.078;2023-03-14T21:06:50;1.50;99.90
21551;DHT22;10936;49.836;7.078;2023-03-14T21:09:22;1.40;99.90
21551;DHT22;10936;49.836;7.078;2023-03-14T21:11:48;1.40;99.90
21551;DHT22;10936;49.836;7.078;2023-03-14T21:14:15;1.30;99.90
21551;DHT22;10936;49.836;7.078;2023-03-14T21:16:43;1.20;99.90
21551;DHT22;10936;49.836;7.078;2023-03-14T21:19:09;1.10;99.90
21551;DHT22;10936;49.836;7.078;2023-03-14T21:21:35;1.10;99.90
21551;DHT22;10936;49.836;7.078;2023-03-14T21:24:02;0.90;99.90
21551;DHT22;10936;49.836;7.078;2023-03-14T21:26:28;0.70;99.90
21551;DHT22;10936;49.836;7.078;2023-03-14T21:28:54;0.50;99.90
21551;DHT22;10936;49.836;7.078;2023-03-14T21:31:19;0.40;99.90
21551;DHT22;10936;49.836;7.078;2023-03-14T21:33:45;0.30;99.90
21551;DHT22;10936;49.836;7.078;2023-03-14T21:36:10;0.10;99.90
21551;DHT22;10936;49.836;7.078;2023-03-14T21:38:36;-0.10;99.90
21551;DHT22;10936;49.836;7.078;2023-03-14T21:41:02;-0.10;99.90
21551;DHT22;10936;49.836;7.078;2023-03-14T21:43:27;-0.10;99.90
21551;DHT22;10936;49.836;7.078;2023-03-14T21:45:54;-0.10;99.90
21551;DHT22;10936;49.836;7.078;2023-03-14T21:48:20;-0.20;99.90
21551;DHT22;10936;49.836;7.078;2023-03-14T21:50:49;-0.20;99.90
21551;DHT22;10936;49.836;7.078;2023-03-14T21:53:14;-0.40;99.90
21551;DHT22;10936;49.836;7.078;2023-03-14T21:55:41;-0.40;99.90
21551;DHT22;10936;49.836;7.078;2023-03-14T21:58:08;-0.50;99.90
21551;DHT22;10936;49.836;7.078;2023-03-14T22:00:39;-0.60;99.90
21551;DHT22;10936;49.836;7.078;2023-03-14T22:03:04;-0.60;99.90
21551;DHT22;10936;49.836;7.078;2023-03-14T22:05:30;-0.70;99.90
21551;DHT22;10936;49.836;7.078;2023-03-14T22:07:56;-0.70;99.90
21551;DHT22;10936;49.836;7.078;2023-03-14T22:10:21;-0.70;99.90
21551;DHT22;10936;49.836;7.078;2023-03-14T22:12:47;-0.80;99.90
21551;DHT22;10936;49.836;7.078;2023-03-14T22:15:12;-0.90;99.90
21551;DHT22;10936;49.836;7.078;2023-03-14T22:17:38;-1.00;99.90
21551;DHT22;10936;49.836;7.078;2023-03-14T22:20:04;-1.00;99.90
21551;DHT22;10936;49.836;7.078;2023-03-14T22:22:30;-1.10;99.90
21551;DHT22;10936;49.836;7.078;2023-03-14T22:24:56;-1.10;99.90
21551;DHT22;10936;49.836;7.078;2023-03-14T22:27:22;-1.20;99.90
21551;DHT22;10936;49.836;7.078;2023-03-14T22:29:48;-1.30;99.90
